createdAt,value
2019-05-23T04:36:21.498Z,82.37
2019-05-23T04:38:00.892Z,82.17
2019-05-23T04:39:40.421Z,81.7
2019-05-23T04:41:19.985Z,81.55
2019-05-23T04:42:59.471Z,81.29
2019-05-23T04:44:40.994Z,81.13
2019-05-23T04:46:23.190Z,80.91
2019-05-23T04:48:02.658Z,80.93
2019-05-23T04:49:42.129Z,81.07
2019-05-23T04:51:21.521Z,81.14
2019-05-23T04:53:00.922Z,81.27
2019-05-23T04:54:41.712Z,81.17
2019-05-23T04:56:24.448Z,81.07
2019-05-23T04:58:06.472Z,80.98
2019-05-23T04:59:49.076Z,81.07
2019-05-23T05:01:28.595Z,80.68
2019-05-23T05:03:08.388Z,80.48
2019-05-23T05:04:47.956Z,80.37
2019-05-23T05:06:27.502Z,80.28
2019-05-23T05:08:07.431Z,80.7
2019-05-23T05:09:47.049Z,80.14
2019-05-23T05:11:30.300Z,79.81
2019-05-23T05:13:10.248Z,79.69
2019-05-23T05:14:49.724Z,79.71
2019-05-23T05:16:29.121Z,80.04
2019-05-23T05:18:08.982Z,80.83
2019-05-23T05:19:48.514Z,80.51
2019-05-23T05:21:28.084Z,79.88
2019-05-23T05:23:07.741Z,79.85
2019-05-23T05:24:47.288Z,80.33
2019-05-23T05:26:26.970Z,79.78
2019-05-23T05:28:07.062Z,79.55
2019-05-23T05:29:46.018Z,79.38
2019-05-23T05:31:25.464Z,79.88
2019-05-23T05:33:05.138Z,79.37
2019-05-23T05:34:44.701Z,78.37
2019-05-23T05:36:24.159Z,78.15
2019-05-23T05:38:03.705Z,77.73
2019-05-23T05:39:43.436Z,77.64
2019-05-23T05:41:23.114Z,77.55
2019-05-23T05:43:02.545Z,77.31
2019-05-23T05:44:42.168Z,77.35
2019-05-23T05:46:21.638Z,77.21
2019-05-23T05:48:01.161Z,76.97
2019-05-23T05:49:43.907Z,76.57
2019-05-23T05:51:23.416Z,76.18
2019-05-23T05:53:02.894Z,75.94
2019-05-23T05:54:42.358Z,75.67
2019-05-23T05:56:21.825Z,75.6
2019-05-23T05:58:01.215Z,75.12
2019-05-23T05:59:40.645Z,74.64
2019-05-23T06:01:34.723Z,74.14
2019-05-23T06:03:14.376Z,75.8
2019-05-23T06:04:53.886Z,76.42
2019-05-23T06:06:33.372Z,76.5
2019-05-23T06:08:12.902Z,75.64
2019-05-23T06:09:52.371Z,74.99
2019-05-23T06:11:31.852Z,73.07
2019-05-23T06:13:11.306Z,72.54
2019-05-23T06:14:50.723Z,71.69
2019-05-23T06:16:30.238Z,71.51
2019-05-23T06:18:09.747Z,71.54
2019-05-23T06:19:49.323Z,71.34
2019-05-23T06:21:28.828Z,71.29
2019-05-23T06:23:08.371Z,71.52
2019-05-23T06:24:56.604Z,71.77
2019-05-23T06:26:37.116Z,71.77
2019-05-23T06:28:16.620Z,71.4
2019-05-23T06:29:56.064Z,70.97
2019-05-23T06:31:34.915Z,70.87
2019-05-23T06:33:24.579Z,70.42
2019-05-23T06:35:04.171Z,70.17
2019-05-23T06:36:43.640Z,70.19
2019-05-23T06:38:22.980Z,69.56
2019-05-23T06:40:02.483Z,73.95
2019-05-23T06:41:42.151Z,70.83
2019-05-23T06:43:21.687Z,70.1
2019-05-23T06:45:01.300Z,70.51
2019-05-23T06:46:40.890Z,70.71
2019-05-23T06:48:20.414Z,70.24
2019-05-23T06:49:59.845Z,70.16
2019-05-23T06:51:39.537Z,70.95
2019-05-23T06:53:18.988Z,71.1
2019-05-23T06:55:01.638Z,69.71
2019-05-23T06:56:41.263Z,73.6
2019-05-23T06:58:21.906Z,70.48
2019-05-23T07:00:02.508Z,69.81
2019-05-23T07:01:42.225Z,73.37
2019-05-23T07:03:21.999Z,69.54
2019-05-23T07:07:14.663Z,69.62
2019-05-23T07:08:54.548Z,68.91
2019-05-23T07:10:34.294Z,72.69
2019-05-23T07:12:13.820Z,69.91
2019-05-23T07:13:53.430Z,73.55
2019-05-23T07:17:16.276Z,72.58
2019-05-23T07:18:56.083Z,68.99
2019-05-23T07:20:35.709Z,72.05
2019-05-23T07:22:18.241Z,68.9
2019-05-23T07:23:58.641Z,72.17
2019-05-23T07:25:38.223Z,68.39
2019-05-23T07:27:17.879Z,72.21
2019-05-23T07:28:57.529Z,68.86
2019-05-23T07:30:37.518Z,71.92
2019-05-23T07:32:16.991Z,68.58
2019-05-23T07:34:04.017Z,71.41
2019-05-23T07:35:44.131Z,67.78
2019-05-23T07:37:23.948Z,71.42
2019-05-23T07:39:04.027Z,67.14
2019-05-23T07:40:56.047Z,70.76
2019-05-23T07:42:36.024Z,66.7
2019-05-23T07:44:16.030Z,69.63
2019-05-23T07:45:56.381Z,69.45
2019-05-23T07:47:39.813Z,70.21
2019-05-23T07:49:20.000Z,66.08
2019-05-23T07:50:59.921Z,69.82
2019-05-23T07:52:39.868Z,70.03
2019-05-23T07:54:19.689Z,65.75
2019-05-23T07:55:59.056Z,68.53
2019-05-23T07:57:38.919Z,69.28
2019-05-23T07:59:18.467Z,68.97
2019-05-23T08:00:58.314Z,68.92
2019-05-23T08:02:38.555Z,68.4
2019-05-23T08:04:23.959Z,68.08
2019-05-23T08:06:03.784Z,68.28
2019-05-23T08:07:44.051Z,67.13
2019-05-23T08:09:24.706Z,67.17
2019-05-23T08:11:04.346Z,66.66
2019-05-23T08:12:43.978Z,66.88
2019-05-23T08:14:23.777Z,66.42
2019-05-23T08:16:03.482Z,66.77
2019-05-23T08:17:43.270Z,66.55
2019-05-23T08:19:23.055Z,66.31
2019-05-23T08:21:02.985Z,65.17
2019-05-23T08:22:42.722Z,64.9
2019-05-23T08:24:22.401Z,65.33
2019-05-23T08:26:01.931Z,64.56
2019-05-23T08:27:41.704Z,64.27
2019-05-23T08:29:28.092Z,64.77
2019-05-23T08:31:07.574Z,65.37
2019-05-23T08:32:47.287Z,65.1
2019-05-23T08:34:43.133Z,64.54
2019-05-23T08:36:23.004Z,61.82
2019-05-23T08:38:02.741Z,61.56
2019-05-23T08:39:42.516Z,62.5
2019-05-23T08:41:21.964Z,62.49
2019-05-23T08:43:01.738Z,62.44
2019-05-23T08:44:41.441Z,62.57
2019-05-23T08:46:21.121Z,63.25
2019-05-23T08:48:00.701Z,64.18
2019-05-23T08:49:40.410Z,62.96
2019-05-23T08:51:20.235Z,62.33
2019-05-23T08:52:59.840Z,63.38
2019-05-23T08:54:39.277Z,62.69
2019-05-23T08:56:21.238Z,61.79
2019-05-23T08:58:00.796Z,60.89
2019-05-23T08:59:40.300Z,60.51
2019-05-23T09:01:19.787Z,60.2
2019-05-23T09:03:00.785Z,60.11
2019-05-23T09:04:40.180Z,60.22
2019-05-23T09:06:43.142Z,61.16
2019-05-23T09:08:22.658Z,61.46
2019-05-23T09:10:01.718Z,61.72
2019-05-23T09:11:41.273Z,62.76
2019-05-23T09:13:20.789Z,62.95
2019-05-23T09:16:39.680Z,61.54
2019-05-23T09:18:19.294Z,61.88
2019-05-23T09:19:58.941Z,61.45
2019-05-23T09:21:38.428Z,61.02
2019-05-23T09:23:17.951Z,60.76
2019-05-23T09:24:57.363Z,60.98
2019-05-23T09:26:36.946Z,60.97
2019-05-23T09:28:16.383Z,61.62
2019-05-23T09:29:55.938Z,62.01
2019-05-23T09:31:35.503Z,62.18
2019-05-23T09:33:14.990Z,62.46
2019-05-23T09:34:54.578Z,62.46
2019-05-23T09:36:34.130Z,62.08
2019-05-23T09:38:13.555Z,61.54
2019-05-23T09:39:53.191Z,61.54
2019-05-23T09:41:32.666Z,61.84
2019-05-23T09:43:12.250Z,60.8
2019-05-23T09:44:51.973Z,61.05
2019-05-23T09:46:31.517Z,60.6
2019-05-23T09:48:10.923Z,59.98
2019-05-23T09:49:55.926Z,60.42
2019-05-23T09:51:35.529Z,60.16
2019-05-23T09:53:15.007Z,60.06
2019-05-23T09:54:54.522Z,60.09
2019-05-23T09:56:34.081Z,60.4
2019-05-23T09:58:13.555Z,61.15
2019-05-23T09:59:56.856Z,60.93
2019-05-23T10:01:36.614Z,61.23
2019-05-23T10:03:27.339Z,60.76
2019-05-23T10:05:06.850Z,61.27
2019-05-23T10:06:48.841Z,61.72
2019-05-23T10:08:28.261Z,61.45
2019-05-23T10:10:07.942Z,61.76
2019-05-23T10:11:47.503Z,61.32
2019-05-23T10:13:40.573Z,60.6
2019-05-23T10:15:27.998Z,60.06
2019-05-23T10:17:07.553Z,58.91
2019-05-23T10:18:46.951Z,56.08
2019-05-23T10:20:26.472Z,55.31
2019-05-23T10:22:06.012Z,55.74
2019-05-23T10:23:45.494Z,54.43
2019-05-23T10:25:25.030Z,52.85
2019-05-23T10:27:04.470Z,52.04
2019-05-23T10:28:44.072Z,52.14
2019-05-23T10:30:23.545Z,51.11
2019-05-23T10:32:03.068Z,51.23
2019-05-23T10:33:42.582Z,50.79
2019-05-23T10:35:22.033Z,50.68
2019-05-23T10:37:01.508Z,51.12
2019-05-23T10:38:41.115Z,51.73
2019-05-23T10:40:20.588Z,52.32
2019-05-23T10:42:00.073Z,52.27
2019-05-23T10:43:39.607Z,52.79
2019-05-23T10:45:19.235Z,53.97
2019-05-23T10:46:58.696Z,54.16
2019-05-23T10:48:38.215Z,55.27
2019-05-23T10:50:17.622Z,55.84
2019-05-23T10:51:57.146Z,55.3
2019-05-23T10:53:36.653Z,54.49
2019-05-23T10:55:16.433Z,54.42
2019-05-23T10:56:55.948Z,54.36
2019-05-23T10:58:35.752Z,55.21
2019-05-23T11:00:15.552Z,54.33
2019-05-23T11:01:55.043Z,54.57
2019-05-23T11:03:34.492Z,55.89
2019-05-23T11:07:01.741Z,55.99
2019-05-23T11:08:41.331Z,56.22
2019-05-23T11:10:20.907Z,56.71
2019-05-23T11:12:00.410Z,57.9
2019-05-23T11:13:40.011Z,58.18
2019-05-23T11:15:19.535Z,58.24
2019-05-23T11:16:59.131Z,58.86
2019-05-23T11:18:38.670Z,58.67
2019-05-23T11:20:18.322Z,58.06
2019-05-23T11:21:57.826Z,58.05
2019-05-23T11:23:37.500Z,57.7
2019-05-23T11:26:57.686Z,55.27
2019-05-23T11:28:37.184Z,54.52
2019-05-23T11:30:16.646Z,53.88
2019-05-23T11:31:56.219Z,52.86
2019-05-23T11:33:35.695Z,53.01
2019-05-23T11:35:15.152Z,52.85
2019-05-23T11:36:54.678Z,52.84
2019-05-23T11:38:34.074Z,52.67
2019-05-23T11:40:13.621Z,52.76
2019-05-23T11:41:53.150Z,52.19
2019-05-23T11:43:32.651Z,52.38
2019-05-23T11:45:12.161Z,52.09
2019-05-23T11:46:51.807Z,50.69
2019-05-23T11:48:31.479Z,51.21
2019-05-23T11:50:11.443Z,52.16
2019-05-23T11:51:52.157Z,52.99
2019-05-23T11:53:31.896Z,53.26
2019-05-23T11:55:11.725Z,53.72
2019-05-23T11:56:51.710Z,53.88
2019-05-23T11:58:34.194Z,53.46
2019-05-23T12:00:13.930Z,51.29
2019-05-23T12:01:53.764Z,51.43
2019-05-23T12:03:33.482Z,50.63
2019-05-23T12:05:13.201Z,49.28
2019-05-23T12:06:57.577Z,49.32
2019-05-23T12:08:37.510Z,48.71
2019-05-23T12:10:17.497Z,48.37
2019-05-23T12:11:57.434Z,47.89
2019-05-23T12:13:37.009Z,47.61
2019-05-23T12:15:16.796Z,48.33
2019-05-23T12:16:56.564Z,47.34
2019-05-23T12:18:37.744Z,46.51
2019-05-23T12:20:17.684Z,45.71
2019-05-23T12:21:57.487Z,45.46
2019-05-23T12:23:37.070Z,46.1
2019-05-23T12:25:24.682Z,47.22
2019-05-23T12:27:04.456Z,47.11
2019-05-23T12:28:44.508Z,47.28
2019-05-23T12:30:24.293Z,48.36
2019-05-23T12:32:03.884Z,47.43
2019-05-23T12:33:43.688Z,48.31
2019-05-23T12:35:24.983Z,48.3
2019-05-23T12:37:20.896Z,48.28
2019-05-23T12:39:01.180Z,48.24
2019-05-23T12:40:40.943Z,48.18
2019-05-23T12:42:20.932Z,49.34
2019-05-23T12:44:00.835Z,50.11
2019-05-23T12:45:40.606Z,50.5
2019-05-23T12:47:26.192Z,50.72
2019-05-23T12:49:05.954Z,51.33
2019-05-23T12:50:45.528Z,52
2019-05-23T12:52:30.229Z,52.17
2019-05-23T12:54:09.979Z,51.04
2019-05-23T12:55:50.091Z,51.79
2019-05-23T12:57:29.726Z,52.25
2019-05-23T12:59:09.473Z,52.96
2019-05-23T13:00:49.295Z,53.22
2019-05-23T13:02:29.439Z,53.25
2019-05-23T13:04:11.672Z,51.75
2019-05-23T13:05:51.448Z,49.89
2019-05-23T13:07:38.340Z,50.02
2019-05-23T13:09:18.265Z,51.11
2019-05-23T13:10:58.222Z,51.55
2019-05-23T13:12:38.089Z,50.49
2019-05-23T13:14:17.919Z,49.87
2019-05-23T13:15:57.556Z,48.66
2019-05-23T13:17:37.226Z,48.05
2019-05-23T13:19:17.055Z,47.98
2019-05-23T13:21:00.927Z,49.32
2019-05-23T13:22:41.034Z,50.09
2019-05-23T13:24:20.843Z,48.39
2019-05-23T13:26:00.479Z,47.49
2019-05-23T13:27:40.264Z,47.21
2019-05-23T13:29:23.955Z,45.98
2019-05-23T13:31:03.881Z,45.13
2019-05-23T13:32:43.452Z,44.38
2019-05-23T13:34:23.221Z,45.23
2019-05-23T13:36:02.866Z,45.64
2019-05-23T13:37:55.291Z,45.35
2019-05-23T13:39:35.116Z,45.18
2019-05-23T13:41:14.759Z,44.61
2019-05-23T13:42:54.440Z,44.87
2019-05-23T13:44:37.523Z,45.39
2019-05-23T13:46:17.002Z,45.51
2019-05-23T13:47:56.510Z,45.83
2019-05-23T13:49:36.006Z,44.48
2019-05-23T13:51:15.534Z,42.94
2019-05-23T13:52:55.021Z,42.89
2019-05-23T13:54:38.205Z,41.72
2019-05-23T13:56:17.737Z,42.14
2019-05-23T13:57:57.614Z,43.81
2019-05-23T13:59:37.259Z,44.56
2019-05-23T14:01:16.710Z,44.3
2019-05-23T14:02:56.891Z,45.09
2019-05-23T14:04:38.276Z,45.47
2019-05-23T14:06:17.828Z,45.6
2019-05-23T14:08:13.616Z,45.89
2019-05-23T14:10:04.795Z,46.51
2019-05-23T14:11:44.385Z,46.21
2019-05-23T14:13:25.550Z,45.57
2019-05-23T14:15:05.935Z,44.64
2019-05-23T14:16:45.387Z,43.45
2019-05-23T14:18:24.931Z,41.97
2019-05-23T14:20:04.473Z,42.16
2019-05-23T14:21:44.254Z,41.63
2019-05-23T14:23:23.778Z,40.45
2019-05-23T14:26:46.205Z,41.88
2019-05-23T14:28:25.663Z,41.74
2019-05-23T14:30:14.868Z,40.72
2019-05-23T14:32:01.638Z,40.65
2019-05-23T14:33:41.033Z,41.02
2019-05-23T14:35:20.433Z,41.6
2019-05-23T14:36:59.985Z,42.23
2019-05-23T14:38:39.535Z,41.23
2019-05-23T14:40:18.985Z,40.94
2019-05-23T14:41:58.490Z,41.04
2019-05-23T14:43:38.002Z,40.64
2019-05-23T14:45:17.453Z,40.89
2019-05-23T14:46:56.944Z,41.2
2019-05-23T14:48:36.557Z,40.2
2019-05-23T14:50:16.078Z,40.15
2019-05-23T14:51:55.566Z,39.91
2019-05-23T14:53:35.068Z,39.75
2019-05-23T14:55:14.486Z,41
2019-05-23T14:56:53.957Z,41.59
2019-05-23T14:58:33.500Z,40.96
2019-05-23T15:00:12.960Z,39.3
2019-05-23T15:01:52.482Z,39.59
2019-05-23T15:03:35.342Z,40.19
2019-05-23T15:05:15.163Z,39.12
2019-05-23T15:06:54.615Z,39.3
2019-05-23T15:08:52.415Z,40
2019-05-23T15:10:32.018Z,39.62
2019-05-23T15:12:10.848Z,40
2019-05-23T15:13:50.339Z,40.34
2019-05-23T15:15:30.106Z,40.88
2019-05-23T15:17:09.579Z,41.17
2019-05-23T15:18:49.146Z,41.55
2019-05-23T15:20:28.738Z,41.93
2019-05-23T15:22:08.137Z,41.84
2019-05-23T15:23:47.873Z,42.39
2019-05-23T15:25:27.359Z,43.65
2019-05-23T15:27:06.827Z,44.15
2019-05-23T15:28:46.318Z,44.74
2019-05-23T15:30:25.881Z,45.7
2019-05-23T15:32:05.402Z,45.97
2019-05-23T15:33:44.983Z,45.51
2019-05-23T15:35:24.619Z,44.99
2019-05-23T15:37:04.323Z,43.59
2019-05-23T15:38:43.816Z,43.07
2019-05-23T15:40:23.433Z,42.74
2019-05-23T15:42:02.912Z,43.19
2019-05-23T15:43:42.474Z,43.02
2019-05-23T15:45:22.239Z,42.76
2019-05-23T15:47:01.789Z,42.74
2019-05-23T15:48:41.303Z,41.9
2019-05-23T15:50:20.864Z,41.78
2019-05-23T15:52:00.389Z,42.06
2019-05-23T15:53:39.834Z,42.31
2019-05-23T15:55:19.394Z,42.29
2019-05-23T15:56:58.948Z,42.57
2019-05-23T15:58:38.439Z,42.68
2019-05-23T16:00:17.884Z,41.86
2019-05-23T16:01:57.461Z,42.26
2019-05-23T16:03:37.078Z,42.74
2019-05-23T16:05:16.617Z,42.81
2019-05-23T16:06:56.112Z,42.18
2019-05-23T16:08:35.633Z,42.84
2019-05-23T16:10:15.248Z,42.87
2019-05-23T16:11:54.678Z,42.73
2019-05-23T16:13:34.301Z,43.98
2019-05-23T16:15:13.773Z,44.19
2019-05-23T16:16:58.078Z,44.67
2019-05-23T16:18:37.587Z,44.26
2019-05-23T16:20:16.994Z,43.93
2019-05-23T16:21:56.534Z,43.39
2019-05-23T16:23:36.153Z,42.98
2019-05-23T16:25:15.654Z,43.35
2019-05-23T16:26:55.207Z,43.9
2019-05-23T16:28:34.755Z,43.93
2019-05-23T16:30:14.274Z,44.2
2019-05-23T16:31:53.739Z,44.77
2019-05-23T16:33:33.241Z,44.22
2019-05-23T16:35:12.824Z,44.08
2019-05-23T16:36:52.318Z,44.43
2019-05-23T16:38:31.771Z,44.74
2019-05-23T16:40:11.298Z,45.01
2019-05-23T16:41:50.874Z,44.62
2019-05-23T16:43:30.344Z,45.05
2019-05-23T16:45:11.041Z,45.35
2019-05-23T16:46:50.526Z,46.09
2019-05-23T16:48:30.100Z,46.47
2019-05-23T16:50:09.742Z,47.33
2019-05-23T16:51:49.209Z,47.65
2019-05-23T16:53:28.649Z,48.12
2019-05-23T16:55:12.268Z,48.91
2019-05-23T16:56:51.839Z,49.63
2019-05-23T16:58:31.304Z,50.02
2019-05-23T17:00:10.839Z,50.79
2019-05-23T17:02:06.194Z,50.76
2019-05-23T17:03:46.257Z,51
2019-05-23T17:05:27.184Z,51.4
2019-05-23T17:07:06.731Z,51.67
2019-05-23T17:08:46.140Z,51.97
2019-05-23T17:10:25.529Z,52.14
2019-05-23T17:12:05.323Z,52.45
2019-05-23T17:13:45.314Z,52.68
2019-05-23T17:15:24.698Z,52.96
2019-05-23T17:17:07.340Z,52.91
2019-05-23T17:18:46.929Z,53.21
2019-05-23T17:20:26.389Z,53.43
2019-05-23T17:22:07.051Z,53.75
2019-05-23T17:23:46.628Z,54.04
2019-05-23T17:25:26.131Z,54.59
2019-05-23T17:27:10.396Z,54.77
2019-05-23T17:28:49.953Z,55.2
2019-05-23T17:30:29.537Z,55.41
2019-05-23T17:32:09.088Z,55.89
2019-05-23T17:33:48.654Z,56.74
2019-05-23T17:35:28.232Z,56.84
2019-05-23T17:37:07.637Z,57.53
2019-05-23T17:38:47.082Z,56.84
2019-05-23T17:40:27.486Z,56.95
2019-05-23T17:42:07.065Z,57.51
2019-05-23T17:43:47.802Z,57.42
2019-05-23T17:45:27.392Z,57.78
2019-05-23T17:47:06.896Z,57.59
2019-05-23T17:48:46.406Z,58.02
2019-05-23T17:50:25.949Z,57.97
2019-05-23T17:52:05.512Z,57.91
2019-05-23T17:53:45.146Z,57.92
2019-05-23T17:55:24.711Z,57.95
2019-05-23T17:57:04.197Z,57.73
2019-05-23T17:58:43.736Z,58.37
2019-05-23T18:00:23.423Z,58.89
2019-05-23T18:02:02.977Z,58.82
2019-05-23T18:03:43.666Z,59.43
2019-05-23T18:05:24.336Z,59.32
2019-05-23T18:07:03.931Z,59.41
2019-05-23T18:08:43.532Z,58.86
2019-05-23T18:10:23.055Z,59.51
2019-05-23T18:12:30.149Z,59.97
2019-05-23T18:14:09.655Z,59.74
2019-05-23T18:15:49.229Z,59.62
2019-05-23T18:17:28.764Z,59.89
2019-05-23T18:19:08.314Z,59.95
2019-05-23T18:20:47.821Z,59.87
2019-05-23T18:22:27.402Z,60.13
2019-05-23T18:24:07.236Z,60.27
2019-05-23T18:25:46.896Z,60.08
2019-05-23T18:27:26.435Z,59.73
2019-05-23T18:29:06.070Z,59.83
2019-05-23T18:30:45.893Z,59.59
2019-05-23T18:32:25.163Z,59.46
2019-05-23T18:34:04.850Z,59.9
2019-05-23T18:35:44.403Z,60.34
2019-05-23T18:37:23.940Z,60.25
2019-05-23T18:39:04.107Z,59.98
2019-05-23T18:40:53.306Z,59.87
2019-05-23T18:42:49.984Z,60.32
2019-05-23T18:44:29.538Z,60.54
2019-05-23T18:46:09.184Z,60.09
2019-05-23T18:47:49.016Z,60.02
2019-05-23T18:49:28.610Z,60.12
2019-05-23T18:51:08.129Z,60.19
2019-05-23T18:52:47.778Z,60.13
2019-05-23T18:54:35.174Z,60.06
2019-05-23T18:56:14.652Z,60.13
2019-05-23T18:57:54.217Z,60.51
2019-05-23T18:59:33.848Z,61.16
2019-05-23T19:01:13.418Z,61.47
2019-05-23T19:02:53.077Z,61.79
2019-05-23T19:04:32.634Z,61.75
2019-05-23T19:06:12.154Z,61.96
2019-05-23T19:07:51.713Z,62.28
2019-05-23T19:09:31.245Z,62.56
2019-05-23T19:11:21.999Z,62.77
2019-05-23T19:13:01.734Z,62.81
2019-05-23T19:14:40.608Z,62.92
2019-05-23T19:16:20.191Z,63.31
2019-05-23T19:17:59.640Z,63.5
2019-05-23T19:19:39.250Z,63.74
2019-05-23T19:21:18.067Z,64.08
2019-05-23T19:22:57.617Z,64.62
2019-05-23T19:24:37.137Z,65.1
2019-05-23T19:26:16.735Z,65.51
2019-05-23T19:27:56.514Z,65.26
2019-05-23T19:29:36.175Z,66.17
2019-05-23T19:31:15.796Z,66.4
2019-05-23T19:32:55.474Z,66.94
2019-05-23T19:34:35.114Z,67.44
2019-05-23T19:36:14.922Z,66.33
2019-05-23T19:37:54.590Z,66.88
2019-05-23T19:39:34.064Z,68
2019-05-23T19:41:13.922Z,68.39
2019-05-23T19:42:53.717Z,69.07
2019-05-23T19:44:33.393Z,69.32
2019-05-23T19:46:14.865Z,69.55
2019-05-23T19:47:54.804Z,69.73
2019-05-23T19:49:34.140Z,69.73
2019-05-23T19:51:13.654Z,70.34
2019-05-23T19:52:53.105Z,65.43
2019-05-23T19:54:32.638Z,68.95
2019-05-23T19:56:12.299Z,69.36
2019-05-23T19:57:51.788Z,68.21
2019-05-23T19:59:31.332Z,68.17
2019-05-23T20:01:10.792Z,68.09
2019-05-23T20:02:50.250Z,67.07
2019-05-23T20:04:33.009Z,69.05
2019-05-23T20:06:12.537Z,69.37
2019-05-23T20:07:52.030Z,69.13
2019-05-23T20:09:31.705Z,69.12
2019-05-23T20:11:11.450Z,69.64
2019-05-23T20:12:51.004Z,69.24
2019-05-23T20:14:30.565Z,70.18
2019-05-23T20:16:10.508Z,66.17
2019-05-23T20:17:53.736Z,69.71
2019-05-23T20:19:33.343Z,70.32
2019-05-23T20:21:12.801Z,66.88
2019-05-23T20:22:52.262Z,70.2
2019-05-23T20:24:31.677Z,66.96
2019-05-23T20:26:11.220Z,70.48
2019-05-23T20:27:50.715Z,66.95
2019-05-23T20:29:30.443Z,70.9
2019-05-23T20:31:09.868Z,67.27
2019-05-23T20:32:49.368Z,70.99
2019-05-23T20:34:28.841Z,67.08
2019-05-23T20:36:11.866Z,71.37
2019-05-23T20:37:52.033Z,67.39
2019-05-23T20:39:31.455Z,71.06
2019-05-23T20:41:10.910Z,67.6
2019-05-23T20:42:50.359Z,71.71
2019-05-23T20:44:29.773Z,68.17
2019-05-23T20:46:09.360Z,72.06
2019-05-23T20:47:48.994Z,68.92
2019-05-23T20:49:29.152Z,72.12
2019-05-23T20:51:08.678Z,68.75
2019-05-23T20:52:48.146Z,72.83
2019-05-23T20:54:27.647Z,69.26
2019-05-23T20:56:10.044Z,73.39
2019-05-23T20:57:49.519Z,70.1
2019-05-23T20:59:29.028Z,70.74
2019-05-23T21:01:08.515Z,70.68
2019-05-23T21:02:48.100Z,70.48
2019-05-23T21:04:27.681Z,70.45
2019-05-23T21:06:08.770Z,70.93
2019-05-23T21:07:48.397Z,71.26
2019-05-23T21:09:27.941Z,71.17
2019-05-23T21:11:07.396Z,71.09
2019-05-23T21:12:46.847Z,71.19
2019-05-23T21:14:26.265Z,71
2019-05-23T21:16:05.853Z,71.26
2019-05-23T21:17:45.349Z,71.55
2019-05-23T21:19:24.950Z,71.26
2019-05-23T21:21:04.434Z,70.48
2019-05-23T21:22:43.943Z,70.24
2019-05-23T21:24:23.433Z,70.65
2019-05-23T21:26:02.903Z,70.77
2019-05-23T21:27:42.411Z,70.81
2019-05-23T21:29:21.901Z,70.92
2019-05-23T21:31:01.294Z,70.91
2019-05-23T21:32:40.988Z,70.86
2019-05-23T21:34:24.009Z,70.84
2019-05-23T21:36:03.970Z,71.04
2019-05-23T21:37:43.743Z,71.64
2019-05-23T21:39:23.359Z,71.46
2019-05-23T21:41:05.216Z,71.23
2019-05-23T21:42:49.604Z,71.23
2019-05-23T21:44:29.298Z,71.53
2019-05-23T21:46:09.553Z,71.27
2019-05-23T21:47:49.330Z,71.74
2019-05-23T21:49:29.781Z,71.67
2019-05-23T21:51:09.348Z,71.22
2019-05-23T21:52:48.506Z,71.29
2019-05-23T21:54:29.065Z,71.15
2019-05-23T21:56:08.640Z,71.34
2019-05-23T21:57:48.433Z,71.2
2019-05-23T21:59:27.858Z,70.94
2019-05-23T22:01:07.504Z,71.06
2019-05-23T22:02:47.158Z,71.48
2019-05-23T22:04:27.144Z,71.16
2019-05-23T22:06:06.999Z,71.12
2019-05-23T22:07:47.042Z,70.44
2019-05-23T22:09:26.836Z,70.77
2019-05-23T22:11:06.861Z,70.58
2019-05-23T22:12:46.581Z,71.32
2019-05-23T22:14:41.788Z,72.06
2019-05-23T22:16:21.748Z,71.9
2019-05-23T22:18:01.181Z,72.35
2019-05-23T22:19:40.832Z,72.86
2019-05-23T22:21:20.421Z,72.75
2019-05-23T22:23:00.030Z,72.22
2019-05-23T22:24:39.448Z,71.34
2019-05-23T22:26:18.850Z,72.34
2019-05-23T22:27:58.538Z,72.14
2019-05-23T22:29:37.955Z,72.49
2019-05-23T22:31:16.789Z,71.62
2019-05-23T22:32:56.256Z,71.57
2019-05-23T22:34:35.748Z,71.67
2019-05-23T22:36:15.236Z,72.43
2019-05-23T22:37:54.652Z,71.87
2019-05-23T22:39:34.139Z,71.74
2019-05-23T22:41:13.603Z,71.59
2019-05-23T22:42:52.994Z,72.61
2019-05-23T22:44:32.462Z,72.85
2019-05-23T22:46:12.024Z,72.67
2019-05-23T22:47:51.537Z,73.15
2019-05-23T22:49:31.116Z,73.27
2019-05-23T22:51:10.523Z,72.87
2019-05-23T22:52:50.100Z,72.95
2019-05-23T22:54:29.564Z,73.05
2019-05-23T22:56:09.012Z,73.15
2019-05-23T22:57:48.430Z,73.59
2019-05-23T22:59:27.878Z,72.88
2019-05-23T23:01:07.371Z,72.43
2019-05-23T23:04:30.119Z,72.77
2019-05-23T23:06:09.588Z,72.35
2019-05-23T23:07:49.036Z,72.09
2019-05-23T23:09:28.410Z,71.92
2019-05-23T23:11:07.818Z,71.71
2019-05-23T23:12:47.269Z,71.71
2019-05-23T23:14:26.737Z,71.67
2019-05-23T23:16:06.219Z,71.33
2019-05-23T23:17:45.706Z,71.11
2019-05-23T23:19:25.115Z,71.18
2019-05-23T23:21:04.605Z,71.24
2019-05-23T23:22:44.029Z,70.81
2019-05-23T23:24:23.493Z,70.44
2019-05-23T23:26:03.254Z,70.52
2019-05-23T23:27:42.714Z,70.79
2019-05-23T23:29:22.067Z,70.38
2019-05-23T23:31:01.597Z,70.32
2019-05-23T23:32:41.077Z,70.52
2019-05-23T23:34:20.527Z,70.39
2019-05-23T23:35:59.998Z,70.4
2019-05-23T23:37:39.409Z,70.13
2019-05-23T23:39:18.740Z,69.88
2019-05-23T23:40:58.308Z,74.21
2019-05-23T23:42:37.688Z,71.09
2019-05-23T23:44:17.006Z,70.41
2019-05-23T23:45:56.609Z,70.32
2019-05-23T23:47:36.157Z,70.28
2019-05-23T23:49:15.678Z,70.48
2019-05-23T23:50:55.159Z,69.97
2019-05-23T23:52:34.549Z,74.06
2019-05-23T23:54:13.902Z,70.9
2019-05-23T23:55:53.285Z,70.52
2019-05-23T23:57:32.707Z,70.53
2019-05-23T23:59:12.169Z,70.29
